sensor_id;sensor_type;location;lat;lon;timestamp;P1;durP1;ratioP1;P2;durP2;ratioP2
65835;SDS011;52595;51.608;7.216;2022-08-19T00:00:13;6.32;;;4.93;;
65835;SDS011;52595;51.608;7.216;2022-08-19T00:02:39;6.45;;;4.80;;
65835;SDS011;52595;51.608;7.216;2022-08-19T00:05:06;5.90;;;4.93;;
65835;SDS011;52595;51.608;7.216;2022-08-19T00:07:32;5.75;;;4.88;;
65835;SDS011;52595;51.608;7.216;2022-08-19T00:09:58;5.70;;;4.85;;
65835;SDS011;52595;51.608;7.216;2022-08-19T00:12:23;7.20;;;5.15;;
65835;SDS011;52595;51.608;7.216;2022-08-19T00:14:49;6.38;;;5.28;;
65835;SDS011;52595;51.608;7.216;2022-08-19T00:17:14;7.03;;;5.43;;
65835;SDS011;52595;51.608;7.216;2022-08-19T00:19:40;7.47;;;5.57;;
65835;SDS011;52595;51.608;7.216;2022-08-19T00:22:05;7.13;;;5.43;;
65835;SDS011;52595;51.608;7.216;2022-08-19T00:24:33;6.35;;;5.72;;
65835;SDS011;52595;51.608;7.216;2022-08-19T00:26:59;8.57;;;5.47;;
65835;SDS011;52595;51.608;7.216;2022-08-19T00:29:26;6.18;;;5.38;;
65835;SDS011;52595;51.608;7.216;2022-08-19T00:31:52;6.85;;;5.30;;
65835;SDS011;52595;51.608;7.216;2022-08-19T00:34:20;8.65;;;5.63;;
65835;SDS011;52595;51.608;7.216;2022-08-19T00:36:46;7.45;;;6.20;;
65835;SDS011;52595;51.608;7.216;2022-08-19T00:39:12;7.50;;;5.80;;
65835;SDS011;52595;51.608;7.216;2022-08-19T00:41:39;8.63;;;6.38;;
65835;SDS011;52595;51.608;7.216;2022-08-19T00:44:10;8.20;;;6.13;;
65835;SDS011;52595;51.608;7.216;2022-08-19T00:46:39;7.97;;;5.70;;
65835;SDS011;52595;51.608;7.216;2022-08-19T00:49:09;7.40;;;6.00;;
65835;SDS011;52595;51.608;7.216;2022-08-19T00:51:40;7.72;;;5.93;;
65835;SDS011;52595;51.608;7.216;2022-08-19T00:54:07;7.60;;;5.57;;
65835;SDS011;52595;51.608;7.216;2022-08-19T00:56:34;7.32;;;6.10;;
65835;SDS011;52595;51.608;7.216;2022-08-19T00:59:00;7.28;;;5.57;;
65835;SDS011;52595;51.608;7.216;2022-08-19T01:01:26;6.35;;;5.60;;
65835;SDS011;52595;51.608;7.216;2022-08-19T01:03:52;7.00;;;5.45;;
65835;SDS011;52595;51.608;7.216;2022-08-19T01:06:17;7.22;;;6.13;;
65835;SDS011;52595;51.608;7.216;2022-08-19T01:08:43;9.25;;;5.93;;
65835;SDS011;52595;51.608;7.216;2022-08-19T01:11:08;7.05;;;6.05;;
65835;SDS011;52595;51.608;7.216;2022-08-19T01:13:34;8.18;;;6.10;;
65835;SDS011;52595;51.608;7.216;2022-08-19T01:16:05;9.57;;;6.35;;
65835;SDS011;52595;51.608;7.216;2022-08-19T01:18:35;6.45;;;5.65;;
65835;SDS011;52595;51.608;7.216;2022-08-19T01:21:09;7.07;;;6.30;;
65835;SDS011;52595;51.608;7.216;2022-08-19T01:23:41;8.23;;;6.50;;
65835;SDS011;52595;51.608;7.216;2022-08-19T01:26:09;8.25;;;6.40;;
65835;SDS011;52595;51.608;7.216;2022-08-19T01:28:44;9.32;;;6.30;;
65835;SDS011;52595;51.608;7.216;2022-08-19T01:31:17;8.10;;;6.30;;
65835;SDS011;52595;51.608;7.216;2022-08-19T01:33:46;6.78;;;5.75;;
65835;SDS011;52595;51.608;7.216;2022-08-19T01:36:19;10.98;;;6.63;;
65835;SDS011;52595;51.608;7.216;2022-08-19T01:38:48;8.43;;;6.53;;
65835;SDS011;52595;51.608;7.216;2022-08-19T01:41:14;8.10;;;6.97;;
65835;SDS011;52595;51.608;7.216;2022-08-19T01:43:40;9.38;;;6.97;;
65835;SDS011;52595;51.608;7.216;2022-08-19T01:46:05;9.25;;;7.30;;
65835;SDS011;52595;51.608;7.216;2022-08-19T01:48:35;8.52;;;7.00;;
65835;SDS011;52595;51.608;7.216;2022-08-19T01:51:02;9.63;;;7.10;;
65835;SDS011;52595;51.608;7.216;2022-08-19T01:53:28;10.98;;;7.35;;
65835;SDS011;52595;51.608;7.216;2022-08-19T01:55:54;10.90;;;7.32;;
65835;SDS011;52595;51.608;7.216;2022-08-19T01:58:21;10.52;;;7.47;;
65835;SDS011;52595;51.608;7.216;2022-08-19T02:00:49;11.35;;;7.22;;
65835;SDS011;52595;51.608;7.216;2022-08-19T02:03:16;10.32;;;7.45;;
65835;SDS011;52595;51.608;7.216;2022-08-19T02:05:41;9.55;;;7.55;;
65835;SDS011;52595;51.608;7.216;2022-08-19T02:08:08;9.52;;;7.90;;
65835;SDS011;52595;51.608;7.216;2022-08-19T02:10:37;12.45;;;8.27;;
65835;SDS011;52595;51.608;7.216;2022-08-19T02:13:04;11.80;;;9.33;;
65835;SDS011;52595;51.608;7.216;2022-08-19T02:15:30;14.27;;;10.88;;
65835;SDS011;52595;51.608;7.216;2022-08-19T02:17:55;14.05;;;10.77;;
65835;SDS011;52595;51.608;7.216;2022-08-19T02:20:20;14.13;;;10.80;;
65835;SDS011;52595;51.608;7.216;2022-08-19T02:22:47;14.07;;;9.85;;
65835;SDS011;52595;51.608;7.216;2022-08-19T02:25:13;14.18;;;11.68;;
65835;SDS011;52595;51.608;7.216;2022-08-19T02:27:39;16.80;;;12.25;;
65835;SDS011;52595;51.608;7.216;2022-08-19T02:30:06;16.85;;;12.63;;
65835;SDS011;52595;51.608;7.216;2022-08-19T02:32:34;15.15;;;11.95;;
65835;SDS011;52595;51.608;7.216;2022-08-19T02:34:59;17.00;;;12.80;;
65835;SDS011;52595;51.608;7.216;2022-08-19T02:37:25;15.38;;;12.75;;
65835;SDS011;52595;51.608;7.216;2022-08-19T02:40:09;16.67;;;12.52;;
65835;SDS011;52595;51.608;7.216;2022-08-19T02:42:34;17.38;;;12.65;;
65835;SDS011;52595;51.608;7.216;2022-08-19T02:45:00;17.00;;;12.95;;
65835;SDS011;52595;51.608;7.216;2022-08-19T02:47:25;17.98;;;13.20;;
65835;SDS011;52595;51.608;7.216;2022-08-19T02:49:51;19.70;;;13.88;;
65835;SDS011;52595;51.608;7.216;2022-08-19T02:52:16;17.95;;;13.85;;
65835;SDS011;52595;51.608;7.216;2022-08-19T02:54:41;16.67;;;12.90;;
65835;SDS011;52595;51.608;7.216;2022-08-19T02:57:07;18.55;;;14.25;;
65835;SDS011;52595;51.608;7.216;2022-08-19T02:59:33;17.23;;;13.52;;
65835;SDS011;52595;51.608;7.216;2022-08-19T03:01:58;16.80;;;13.35;;
65835;SDS011;52595;51.608;7.216;2022-08-19T03:04:24;16.52;;;13.18;;
65835;SDS011;52595;51.608;7.216;2022-08-19T03:06:50;18.10;;;14.15;;
65835;SDS011;52595;51.608;7.216;2022-08-19T03:09:16;21.08;;;14.75;;
65835;SDS011;52595;51.608;7.216;2022-08-19T03:11:43;19.10;;;14.35;;
65835;SDS011;52595;51.608;7.216;2022-08-19T03:14:09;18.52;;;13.40;;
65835;SDS011;52595;51.608;7.216;2022-08-19T03:16:41;17.02;;;13.52;;
65835;SDS011;52595;51.608;7.216;2022-08-19T03:19:08;21.13;;;14.68;;
65835;SDS011;52595;51.608;7.216;2022-08-19T03:21:34;18.00;;;13.00;;
65835;SDS011;52595;51.608;7.216;2022-08-19T03:24:00;19.88;;;12.98;;
65835;SDS011;52595;51.608;7.216;2022-08-19T03:26:28;16.83;;;12.65;;
65835;SDS011;52595;51.608;7.216;2022-08-19T03:28:54;18.90;;;14.48;;
65835;SDS011;52595;51.608;7.216;2022-08-19T03:31:20;20.85;;;14.50;;
65835;SDS011;52595;51.608;7.216;2022-08-19T03:33:47;18.42;;;13.65;;
65835;SDS011;52595;51.608;7.216;2022-08-19T03:36:21;17.33;;;13.00;;
65835;SDS011;52595;51.608;7.216;2022-08-19T03:38:52;17.23;;;12.77;;
65835;SDS011;52595;51.608;7.216;2022-08-19T03:41:24;20.40;;;13.63;;
65835;SDS011;52595;51.608;7.216;2022-08-19T03:43:51;19.58;;;12.98;;
65835;SDS011;52595;51.608;7.216;2022-08-19T03:46:19;19.92;;;13.73;;
65835;SDS011;52595;51.608;7.216;2022-08-19T03:48:48;18.00;;;13.82;;
65835;SDS011;52595;51.608;7.216;2022-08-19T03:51:23;18.63;;;13.57;;
65835;SDS011;52595;51.608;7.216;2022-08-19T03:53:49;20.58;;;13.82;;
65835;SDS011;52595;51.608;7.216;2022-08-19T03:56:16;16.88;;;12.32;;
65835;SDS011;52595;51.608;7.216;2022-08-19T03:58:42;18.27;;;12.80;;
65835;SDS011;52595;51.608;7.216;2022-08-19T04:01:12;18.67;;;12.48;;
65835;SDS011;52595;51.608;7.216;2022-08-19T04:03:40;17.55;;;12.68;;
65835;SDS011;52595;51.608;7.216;2022-08-19T04:06:09;17.98;;;12.68;;
65835;SDS011;52595;51.608;7.216;2022-08-19T04:08:37;17.80;;;13.25;;
65835;SDS011;52595;51.608;7.216;2022-08-19T04:11:23;16.65;;;12.32;;
65835;SDS011;52595;51.608;7.216;2022-08-19T04:13:52;18.92;;;12.68;;
65835;SDS011;52595;51.608;7.216;2022-08-19T04:16:18;19.70;;;12.85;;
65835;SDS011;52595;51.608;7.216;2022-08-19T04:18:45;16.73;;;12.95;;
65835;SDS011;52595;51.608;7.216;2022-08-19T04:21:15;18.15;;;13.07;;
65835;SDS011;52595;51.608;7.216;2022-08-19T04:26:11;15.98;;;12.13;;
65835;SDS011;52595;51.608;7.216;2022-08-19T04:28:58;16.80;;;12.98;;
65835;SDS011;52595;51.608;7.216;2022-08-19T04:31:26;18.73;;;13.10;;
65835;SDS011;52595;51.608;7.216;2022-08-19T04:33:54;19.35;;;14.18;;
65835;SDS011;52595;51.608;7.216;2022-08-19T04:36:22;18.70;;;13.98;;
65835;SDS011;52595;51.608;7.216;2022-08-19T04:38:52;21.63;;;14.77;;
65835;SDS011;52595;51.608;7.216;2022-08-19T04:41:19;21.45;;;15.18;;
65835;SDS011;52595;51.608;7.216;2022-08-19T04:44:04;25.05;;;17.35;;
65835;SDS011;52595;51.608;7.216;2022-08-19T04:46:29;19.10;;;14.02;;
65835;SDS011;52595;51.608;7.216;2022-08-19T04:48:57;18.60;;;14.55;;
65835;SDS011;52595;51.608;7.216;2022-08-19T04:51:26;22.55;;;13.43;;
65835;SDS011;52595;51.608;7.216;2022-08-19T04:53:52;21.25;;;13.50;;
65835;SDS011;52595;51.608;7.216;2022-08-19T04:56:18;19.38;;;13.45;;
65835;SDS011;52595;51.608;7.216;2022-08-19T04:58:46;18.83;;;13.73;;
65835;SDS011;52595;51.608;7.216;2022-08-19T05:01:18;17.88;;;13.40;;
65835;SDS011;52595;51.608;7.216;2022-08-19T05:03:45;20.20;;;13.68;;
65835;SDS011;52595;51.608;7.216;2022-08-19T05:06:12;16.83;;;12.85;;
65835;SDS011;52595;51.608;7.216;2022-08-19T05:08:39;19.30;;;12.98;;
65835;SDS011;52595;51.608;7.216;2022-08-19T05:13:42;17.55;;;13.00;;
65835;SDS011;52595;51.608;7.216;2022-08-19T05:16:08;16.02;;;12.73;;
65835;SDS011;52595;51.608;7.216;2022-08-19T05:18:34;18.45;;;12.88;;
65835;SDS011;52595;51.608;7.216;2022-08-19T05:21:19;15.10;;;12.40;;
65835;SDS011;52595;51.608;7.216;2022-08-19T05:24:04;16.10;;;12.13;;
65835;SDS011;52595;51.608;7.216;2022-08-19T05:26:34;17.70;;;12.48;;
65835;SDS011;52595;51.608;7.216;2022-08-19T05:29:08;15.43;;;11.82;;
65835;SDS011;52595;51.608;7.216;2022-08-19T05:31:35;18.40;;;13.80;;
65835;SDS011;52595;51.608;7.216;2022-08-19T05:34:03;21.27;;;14.52;;
65835;SDS011;52595;51.608;7.216;2022-08-19T05:36:33;19.35;;;14.70;;
65835;SDS011;52595;51.608;7.216;2022-08-19T05:39:12;20.83;;;14.68;;
65835;SDS011;52595;51.608;7.216;2022-08-19T05:41:49;23.65;;;15.40;;
65835;SDS011;52595;51.608;7.216;2022-08-19T05:44:17;22.10;;;15.80;;
65835;SDS011;52595;51.608;7.216;2022-08-19T05:46:44;24.88;;;15.20;;
65835;SDS011;52595;51.608;7.216;2022-08-19T05:49:12;24.60;;;15.35;;
65835;SDS011;52595;51.608;7.216;2022-08-19T05:51:40;24.10;;;16.23;;
65835;SDS011;52595;51.608;7.216;2022-08-19T05:54:05;24.20;;;15.80;;
65835;SDS011;52595;51.608;7.216;2022-08-19T05:56:33;22.58;;;15.25;;
65835;SDS011;52595;51.608;7.216;2022-08-19T05:59:02;20.92;;;15.52;;
65835;SDS011;52595;51.608;7.216;2022-08-19T06:01:29;20.60;;;14.27;;
65835;SDS011;52595;51.608;7.216;2022-08-19T06:03:54;21.58;;;14.50;;
65835;SDS011;52595;51.608;7.216;2022-08-19T06:06:21;22.40;;;15.73;;
65835;SDS011;52595;51.608;7.216;2022-08-19T06:08:46;22.63;;;15.77;;
65835;SDS011;52595;51.608;7.216;2022-08-19T06:13:47;27.58;;;17.17;;
65835;SDS011;52595;51.608;7.216;2022-08-19T06:16:16;22.67;;;16.88;;
65835;SDS011;52595;51.608;7.216;2022-08-19T06:18:47;21.05;;;16.20;;
65835;SDS011;52595;51.608;7.216;2022-08-19T06:21:14;22.27;;;16.92;;
65835;SDS011;52595;51.608;7.216;2022-08-19T06:23:39;24.92;;;17.75;;
65835;SDS011;52595;51.608;7.216;2022-08-19T06:26:05;26.52;;;17.33;;
65835;SDS011;52595;51.608;7.216;2022-08-19T06:28:30;26.55;;;19.08;;
65835;SDS011;52595;51.608;7.216;2022-08-19T06:30:57;26.05;;;17.45;;
65835;SDS011;52595;51.608;7.216;2022-08-19T06:33:23;24.25;;;18.05;;
65835;SDS011;52595;51.608;7.216;2022-08-19T06:35:48;23.67;;;17.92;;
65835;SDS011;52595;51.608;7.216;2022-08-19T06:38:14;23.40;;;17.48;;
65835;SDS011;52595;51.608;7.216;2022-08-19T06:40:39;23.27;;;16.88;;
65835;SDS011;52595;51.608;7.216;2022-08-19T06:43:05;30.67;;;16.40;;
65835;SDS011;52595;51.608;7.216;2022-08-19T06:45:30;24.55;;;17.23;;
65835;SDS011;52595;51.608;7.216;2022-08-19T06:47:55;24.58;;;16.88;;
65835;SDS011;52595;51.608;7.216;2022-08-19T06:50:23;28.75;;;17.42;;
65835;SDS011;52595;51.608;7.216;2022-08-19T06:52:49;25.85;;;17.27;;
65835;SDS011;52595;51.608;7.216;2022-08-19T06:55:14;22.70;;;16.58;;
65835;SDS011;52595;51.608;7.216;2022-08-19T06:57:40;26.17;;;18.45;;
65835;SDS011;52595;51.608;7.216;2022-08-19T07:00:08;25.92;;;17.33;;
65835;SDS011;52595;51.608;7.216;2022-08-19T07:02:41;26.55;;;17.58;;
65835;SDS011;52595;51.608;7.216;2022-08-19T07:05:07;23.73;;;18.17;;
65835;SDS011;52595;51.608;7.216;2022-08-19T07:07:33;26.42;;;18.02;;
65835;SDS011;52595;51.608;7.216;2022-08-19T07:09:59;24.52;;;17.73;;
65835;SDS011;52595;51.608;7.216;2022-08-19T07:12:26;24.42;;;17.20;;
65835;SDS011;52595;51.608;7.216;2022-08-19T07:14:59;22.70;;;16.65;;
65835;SDS011;52595;51.608;7.216;2022-08-19T07:17:25;23.75;;;16.48;;
65835;SDS011;52595;51.608;7.216;2022-08-19T07:19:51;26.90;;;16.08;;
65835;SDS011;52595;51.608;7.216;2022-08-19T07:22:16;24.85;;;17.33;;
65835;SDS011;52595;51.608;7.216;2022-08-19T07:24:43;26.00;;;16.67;;
65835;SDS011;52595;51.608;7.216;2022-08-19T07:27:08;24.90;;;14.75;;
65835;SDS011;52595;51.608;7.216;2022-08-19T07:29:35;23.13;;;15.25;;
65835;SDS011;52595;51.608;7.216;2022-08-19T07:32:02;20.30;;;14.88;;
65835;SDS011;52595;51.608;7.216;2022-08-19T07:34:29;19.70;;;14.80;;
65835;SDS011;52595;51.608;7.216;2022-08-19T07:36:55;22.23;;;15.95;;
65835;SDS011;52595;51.608;7.216;2022-08-19T07:39:23;22.20;;;16.40;;
65835;SDS011;52595;51.608;7.216;2022-08-19T07:41:51;23.17;;;16.15;;
65835;SDS011;52595;51.608;7.216;2022-08-19T07:44:17;25.13;;;15.75;;
65835;SDS011;52595;51.608;7.216;2022-08-19T07:46:46;22.20;;;16.30;;
65835;SDS011;52595;51.608;7.216;2022-08-19T07:49:14;23.25;;;16.00;;
65835;SDS011;52595;51.608;7.216;2022-08-19T07:51:45;23.30;;;16.05;;
65835;SDS011;52595;51.608;7.216;2022-08-19T07:54:12;21.23;;;16.08;;
65835;SDS011;52595;51.608;7.216;2022-08-19T07:56:37;20.63;;;16.00;;
65835;SDS011;52595;51.608;7.216;2022-08-19T07:59:03;21.20;;;15.35;;
65835;SDS011;52595;51.608;7.216;2022-08-19T08:01:29;20.48;;;14.43;;
65835;SDS011;52595;51.608;7.216;2022-08-19T08:03:55;21.50;;;14.60;;
65835;SDS011;52595;51.608;7.216;2022-08-19T08:06:40;20.73;;;14.80;;
65835;SDS011;52595;51.608;7.216;2022-08-19T08:09:26;21.88;;;14.40;;
65835;SDS011;52595;51.608;7.216;2022-08-19T08:12:03;19.88;;;14.20;;
65835;SDS011;52595;51.608;7.216;2022-08-19T08:14:44;23.65;;;14.13;;
65835;SDS011;52595;51.608;7.216;2022-08-19T08:17:13;19.95;;;13.60;;
65835;SDS011;52595;51.608;7.216;2022-08-19T08:19:43;18.88;;;13.80;;
65835;SDS011;52595;51.608;7.216;2022-08-19T08:22:09;18.95;;;13.93;;
65835;SDS011;52595;51.608;7.216;2022-08-19T08:25:06;19.80;;;13.52;;
65835;SDS011;52595;51.608;7.216;2022-08-19T08:27:38;16.15;;;12.30;;
65835;SDS011;52595;51.608;7.216;2022-08-19T08:30:12;14.98;;;11.48;;
65835;SDS011;52595;51.608;7.216;2022-08-19T08:32:39;13.43;;;10.65;;
65835;SDS011;52595;51.608;7.216;2022-08-19T08:35:07;15.55;;;10.93;;
65835;SDS011;52595;51.608;7.216;2022-08-19T08:37:34;11.88;;;10.32;;
65835;SDS011;52595;51.608;7.216;2022-08-19T08:43:07;21.02;;;12.57;;
65835;SDS011;52595;51.608;7.216;2022-08-19T08:45:47;21.02;;;11.90;;
65835;SDS011;52595;51.608;7.216;2022-08-19T08:48:59;15.05;;;12.20;;
65835;SDS011;52595;51.608;7.216;2022-08-19T08:51:20;16.88;;;11.93;;
65835;SDS011;52595;51.608;7.216;2022-08-19T08:53:52;15.52;;;12.93;;
65835;SDS011;52595;51.608;7.216;2022-08-19T08:56:18;16.70;;;12.23;;
65835;SDS011;52595;51.608;7.216;2022-08-19T08:58:47;16.75;;;12.20;;
65835;SDS011;52595;51.608;7.216;2022-08-19T09:01:19;15.60;;;11.35;;
65835;SDS011;52595;51.608;7.216;2022-08-19T09:03:45;14.93;;;11.82;;
65835;SDS011;52595;51.608;7.216;2022-08-19T09:06:29;12.10;;;10.32;;
65835;SDS011;52595;51.608;7.216;2022-08-19T09:09:16;14.63;;;10.43;;
65835;SDS011;52595;51.608;7.216;2022-08-19T09:11:50;16.48;;;11.75;;
65835;SDS011;52595;51.608;7.216;2022-08-19T09:17:10;14.07;;;11.57;;
65835;SDS011;52595;51.608;7.216;2022-08-19T09:22:20;16.63;;;13.30;;
65835;SDS011;52595;51.608;7.216;2022-08-19T09:24:47;16.52;;;12.40;;
65835;SDS011;52595;51.608;7.216;2022-08-19T09:27:17;15.10;;;12.60;;
65835;SDS011;52595;51.608;7.216;2022-08-19T09:29:43;22.48;;;13.80;;
65835;SDS011;52595;51.608;7.216;2022-08-19T09:32:09;16.10;;;12.80;;
65835;SDS011;52595;51.608;7.216;2022-08-19T09:34:35;17.38;;;13.82;;
65835;SDS011;52595;51.608;7.216;2022-08-19T09:37:00;19.08;;;12.90;;
65835;SDS011;52595;51.608;7.216;2022-08-19T09:39:26;21.35;;;13.68;;
65835;SDS011;52595;51.608;7.216;2022-08-19T09:41:51;17.70;;;14.07;;
65835;SDS011;52595;51.608;7.216;2022-08-19T09:44:17;17.85;;;14.98;;
65835;SDS011;52595;51.608;7.216;2022-08-19T09:46:45;21.45;;;14.60;;
65835;SDS011;52595;51.608;7.216;2022-08-19T09:49:13;16.70;;;14.00;;
65835;SDS011;52595;51.608;7.216;2022-08-19T09:51:40;19.92;;;15.40;;
65835;SDS011;52595;51.608;7.216;2022-08-19T09:54:05;19.17;;;14.70;;
65835;SDS011;52595;51.608;7.216;2022-08-19T09:56:31;20.13;;;15.65;;
65835;SDS011;52595;51.608;7.216;2022-08-19T09:58:58;27.20;;;16.23;;
65835;SDS011;52595;51.608;7.216;2022-08-19T10:01:25;18.50;;;15.43;;
65835;SDS011;52595;51.608;7.216;2022-08-19T10:03:53;19.67;;;14.70;;
65835;SDS011;52595;51.608;7.216;2022-08-19T10:06:20;17.58;;;14.68;;
65835;SDS011;52595;51.608;7.216;2022-08-19T10:11:16;19.30;;;16.35;;
65835;SDS011;52595;51.608;7.216;2022-08-19T10:13:43;18.33;;;15.75;;
65835;SDS011;52595;51.608;7.216;2022-08-19T10:16:10;18.33;;;16.23;;
65835;SDS011;52595;51.608;7.216;2022-08-19T10:18:38;21.38;;;16.58;;
65835;SDS011;52595;51.608;7.216;2022-08-19T10:21:11;19.70;;;14.90;;
65835;SDS011;52595;51.608;7.216;2022-08-19T10:23:39;18.63;;;15.52;;
65835;SDS011;52595;51.608;7.216;2022-08-19T10:26:10;17.67;;;14.50;;
65835;SDS011;52595;51.608;7.216;2022-08-19T10:28:41;16.15;;;12.77;;
65835;SDS011;52595;51.608;7.216;2022-08-19T10:31:07;16.17;;;13.02;;
65835;SDS011;52595;51.608;7.216;2022-08-19T10:33:36;14.38;;;11.52;;
65835;SDS011;52595;51.608;7.216;2022-08-19T10:36:04;14.85;;;9.80;;
65835;SDS011;52595;51.608;7.216;2022-08-19T10:38:32;13.45;;;10.70;;
65835;SDS011;52595;51.608;7.216;2022-08-19T10:41:05;12.65;;;9.10;;
65835;SDS011;52595;51.608;7.216;2022-08-19T10:43:45;12.38;;;8.63;;
65835;SDS011;52595;51.608;7.216;2022-08-19T10:46:12;13.65;;;10.27;;
65835;SDS011;52595;51.608;7.216;2022-08-19T10:48:40;12.30;;;8.52;;
65835;SDS011;52595;51.608;7.216;2022-08-19T10:51:10;15.07;;;9.63;;
65835;SDS011;52595;51.608;7.216;2022-08-19T10:53:54;12.73;;;10.13;;
65835;SDS011;52595;51.608;7.216;2022-08-19T10:56:20;12.07;;;10.02;;
65835;SDS011;52595;51.608;7.216;2022-08-19T10:59:04;15.05;;;11.68;;
65835;SDS011;52595;51.608;7.216;2022-08-19T11:01:31;13.55;;;9.82;;
65835;SDS011;52595;51.608;7.216;2022-08-19T11:03:59;15.40;;;10.50;;
65835;SDS011;52595;51.608;7.216;2022-08-19T11:06:25;14.73;;;10.82;;
65835;SDS011;52595;51.608;7.216;2022-08-19T11:08:51;13.60;;;10.15;;
65835;SDS011;52595;51.608;7.216;2022-08-19T11:11:18;14.15;;;9.90;;
65835;SDS011;52595;51.608;7.216;2022-08-19T11:13:44;13.27;;;10.75;;
65835;SDS011;52595;51.608;7.216;2022-08-19T11:16:12;13.93;;;11.65;;
65835;SDS011;52595;51.608;7.216;2022-08-19T11:18:42;15.55;;;10.98;;
65835;SDS011;52595;51.608;7.216;2022-08-19T11:23:51;14.85;;;10.70;;
65835;SDS011;52595;51.608;7.216;2022-08-19T11:26:18;15.43;;;11.25;;
65835;SDS011;52595;51.608;7.216;2022-08-19T11:28:45;13.10;;;11.45;;
65835;SDS011;52595;51.608;7.216;2022-08-19T11:31:15;15.98;;;12.57;;
65835;SDS011;52595;51.608;7.216;2022-08-19T11:33:42;16.85;;;13.75;;
65835;SDS011;52595;51.608;7.216;2022-08-19T11:36:08;16.88;;;13.27;;
65835;SDS011;52595;51.608;7.216;2022-08-19T11:38:34;14.13;;;12.43;;
65835;SDS011;52595;51.608;7.216;2022-08-19T11:41:02;15.35;;;13.15;;
65835;SDS011;52595;51.608;7.216;2022-08-19T11:43:30;15.57;;;12.48;;
65835;SDS011;52595;51.608;7.216;2022-08-19T11:45:56;13.68;;;10.95;;
65835;SDS011;52595;51.608;7.216;2022-08-19T11:48:23;10.55;;;9.13;;
65835;SDS011;52595;51.608;7.216;2022-08-19T11:50:49;12.45;;;8.93;;
65835;SDS011;52595;51.608;7.216;2022-08-19T11:53:19;10.77;;;8.93;;
65835;SDS011;52595;51.608;7.216;2022-08-19T11:55:45;12.75;;;11.05;;
65835;SDS011;52595;51.608;7.216;2022-08-19T11:58:12;13.63;;;11.15;;
65835;SDS011;52595;51.608;7.216;2022-08-19T12:00:40;13.27;;;10.43;;
65835;SDS011;52595;51.608;7.216;2022-08-19T12:03:06;16.80;;;10.73;;
65835;SDS011;52595;51.608;7.216;2022-08-19T12:05:32;10.57;;;9.43;;
65835;SDS011;52595;51.608;7.216;2022-08-19T12:07:57;13.30;;;10.10;;
65835;SDS011;52595;51.608;7.216;2022-08-19T12:10:23;11.68;;;9.13;;
65835;SDS011;52595;51.608;7.216;2022-08-19T12:12:48;12.90;;;10.55;;
65835;SDS011;52595;51.608;7.216;2022-08-19T12:15:14;12.75;;;9.77;;
65835;SDS011;52595;51.608;7.216;2022-08-19T12:17:42;10.30;;;9.20;;
65835;SDS011;52595;51.608;7.216;2022-08-19T12:20:09;10.45;;;8.93;;
65835;SDS011;52595;51.608;7.216;2022-08-19T12:22:36;14.57;;;9.93;;
65835;SDS011;52595;51.608;7.216;2022-08-19T12:25:03;12.38;;;10.27;;
65835;SDS011;52595;51.608;7.216;2022-08-19T12:27:30;10.65;;;8.00;;
65835;SDS011;52595;51.608;7.216;2022-08-19T12:29:56;10.45;;;7.40;;
65835;SDS011;52595;51.608;7.216;2022-08-19T12:32:22;9.82;;;8.43;;
65835;SDS011;52595;51.608;7.216;2022-08-19T12:34:49;13.60;;;8.90;;
65835;SDS011;52595;51.608;7.216;2022-08-19T12:37:15;9.27;;;7.80;;
65835;SDS011;52595;51.608;7.216;2022-08-19T12:39:42;11.85;;;9.80;;
65835;SDS011;52595;51.608;7.216;2022-08-19T12:42:08;10.63;;;8.95;;
65835;SDS011;52595;51.608;7.216;2022-08-19T12:44:35;12.70;;;9.95;;
65835;SDS011;52595;51.608;7.216;2022-08-19T12:47:03;11.60;;;10.10;;
65835;SDS011;52595;51.608;7.216;2022-08-19T12:49:29;12.00;;;8.40;;
65835;SDS011;52595;51.608;7.216;2022-08-19T12:51:56;12.95;;;9.90;;
65835;SDS011;52595;51.608;7.216;2022-08-19T12:54:23;11.77;;;10.55;;
65835;SDS011;52595;51.608;7.216;2022-08-19T12:56:48;11.70;;;10.35;;
65835;SDS011;52595;51.608;7.216;2022-08-19T12:59:13;13.40;;;10.75;;
65835;SDS011;52595;51.608;7.216;2022-08-19T13:01:41;12.60;;;9.85;;
65835;SDS011;52595;51.608;7.216;2022-08-19T13:04:07;13.23;;;9.25;;
65835;SDS011;52595;51.608;7.216;2022-08-19T13:06:33;10.32;;;9.30;;
65835;SDS011;52595;51.608;7.216;2022-08-19T13:08:58;12.07;;;8.85;;
65835;SDS011;52595;51.608;7.216;2022-08-19T13:11:24;10.07;;;8.50;;
65835;SDS011;52595;51.608;7.216;2022-08-19T13:13:50;12.80;;;8.20;;
65835;SDS011;52595;51.608;7.216;2022-08-19T13:16:16;11.07;;;8.77;;
65835;SDS011;52595;51.608;7.216;2022-08-19T13:18:45;14.75;;;8.13;;
65835;SDS011;52595;51.608;7.216;2022-08-19T13:21:18;11.45;;;7.75;;
65835;SDS011;52595;51.608;7.216;2022-08-19T13:23:47;10.77;;;7.97;;
65835;SDS011;52595;51.608;7.216;2022-08-19T13:26:13;10.07;;;7.43;;
65835;SDS011;52595;51.608;7.216;2022-08-19T13:28:40;10.13;;;7.70;;
65835;SDS011;52595;51.608;7.216;2022-08-19T13:31:25;8.27;;;7.18;;
65835;SDS011;52595;51.608;7.216;2022-08-19T13:34:10;9.50;;;6.97;;
65835;SDS011;52595;51.608;7.216;2022-08-19T13:36:37;9.63;;;6.65;;
65835;SDS011;52595;51.608;7.216;2022-08-19T13:39:03;11.48;;;6.80;;
65835;SDS011;52595;51.608;7.216;2022-08-19T13:41:30;6.93;;;6.22;;
65835;SDS011;52595;51.608;7.216;2022-08-19T13:43:56;8.88;;;6.20;;
65835;SDS011;52595;51.608;7.216;2022-08-19T13:46:21;10.35;;;6.30;;
65835;SDS011;52595;51.608;7.216;2022-08-19T13:48:47;7.47;;;6.15;;
65835;SDS011;52595;51.608;7.216;2022-08-19T13:51:16;10.65;;;5.97;;
65835;SDS011;52595;51.608;7.216;2022-08-19T13:53:42;11.85;;;5.72;;
65835;SDS011;52595;51.608;7.216;2022-08-19T13:56:10;6.38;;;5.07;;
65835;SDS011;52595;51.608;7.216;2022-08-19T13:58:39;8.63;;;4.72;;
65835;SDS011;52595;51.608;7.216;2022-08-19T14:01:05;7.60;;;5.35;;
65835;SDS011;52595;51.608;7.216;2022-08-19T14:03:31;9.27;;;5.10;;
65835;SDS011;52595;51.608;7.216;2022-08-19T14:05:58;6.35;;;4.85;;
65835;SDS011;52595;51.608;7.216;2022-08-19T14:08:24;7.43;;;4.80;;
65835;SDS011;52595;51.608;7.216;2022-08-19T14:10:49;9.48;;;4.72;;
65835;SDS011;52595;51.608;7.216;2022-08-19T14:13:17;6.57;;;4.60;;
65835;SDS011;52595;51.608;7.216;2022-08-19T14:15:45;6.90;;;4.90;;
65835;SDS011;52595;51.608;7.216;2022-08-19T14:18:12;5.28;;;4.30;;
65835;SDS011;52595;51.608;7.216;2022-08-19T14:20:38;5.95;;;4.47;;
65835;SDS011;52595;51.608;7.216;2022-08-19T14:23:04;6.18;;;5.18;;
65835;SDS011;52595;51.608;7.216;2022-08-19T14:25:32;10.63;;;5.15;;
65835;SDS011;52595;51.608;7.216;2022-08-19T14:27:58;10.27;;;5.20;;
65835;SDS011;52595;51.608;7.216;2022-08-19T14:30:28;7.32;;;4.60;;
65835;SDS011;52595;51.608;7.216;2022-08-19T14:32:56;12.77;;;4.85;;
65835;SDS011;52595;51.608;7.216;2022-08-19T14:35:23;5.93;;;4.15;;
65835;SDS011;52595;51.608;7.216;2022-08-19T14:37:49;7.05;;;4.38;;
65835;SDS011;52595;51.608;7.216;2022-08-19T14:40:20;6.47;;;4.35;;
65835;SDS011;52595;51.608;7.216;2022-08-19T14:42:51;6.07;;;4.28;;
65835;SDS011;52595;51.608;7.216;2022-08-19T14:45:29;8.50;;;4.80;;
65835;SDS011;52595;51.608;7.216;2022-08-19T14:50:27;7.55;;;4.53;;
65835;SDS011;52595;51.608;7.216;2022-08-19T14:53:04;9.48;;;5.00;;
65835;SDS011;52595;51.608;7.216;2022-08-19T14:55:32;7.88;;;5.28;;
65835;SDS011;52595;51.608;7.216;2022-08-19T14:57:58;9.82;;;5.38;;